createdAt,value
2023-05-09T00:00:23.324Z,17.48
2023-05-09T00:02:52.551Z,20.73
2023-05-09T00:05:35.292Z,19.58
2023-05-09T00:08:04.441Z,20.08
2023-05-09T00:10:33.544Z,21.13
2023-05-09T00:13:02.625Z,24.38
2023-05-09T00:15:34.470Z,21.30
2023-05-09T00:18:25.260Z,18.88
2023-05-09T00:20:56.613Z,18.02
2023-05-09T00:23:25.984Z,18.65
2023-05-09T00:25:55.003Z,17.60
2023-05-09T00:28:24.073Z,20.75
2023-05-09T00:30:55.956Z,16.92
2023-05-09T00:33:28.107Z,26.10
2023-05-09T00:35:57.260Z,18.60
2023-05-09T00:38:26.488Z,17.30
2023-05-09T00:40:55.485Z,29.90
2023-05-09T00:43:24.417Z,18.95
2023-05-09T00:45:58.916Z,20.92
2023-05-09T00:48:28.616Z,20.95
2023-05-09T00:51:00.719Z,22.10
2023-05-09T00:53:30.039Z,22.08
2023-05-09T00:55:59.836Z,21.38
2023-05-09T00:58:29.748Z,20.55
2023-05-09T01:01:00.855Z,26.10
2023-05-09T01:03:31.549Z,26.52
2023-05-09T01:06:11.371Z,16.63
2023-05-09T01:08:59.038Z,16.40
2023-05-09T01:11:48.104Z,14.85
2023-05-09T01:14:26.898Z,15.93
2023-05-09T01:17:36.875Z,18.70
2023-05-09T01:20:23.767Z,19.35
2023-05-09T01:23:13.224Z,16.77
2023-05-09T01:26:00.473Z,16.13
2023-05-09T01:29:02.619Z,16.88
2023-05-09T01:31:33.421Z,18.17
2023-05-09T01:34:06.496Z,13.02
2023-05-09T01:36:38.105Z,15.87
2023-05-09T01:39:08.890Z,17.08
2023-05-09T01:41:42.873Z,21.30
2023-05-09T01:46:45.608Z,20.92
2023-05-09T01:49:17.112Z,19.52
2023-05-09T01:51:48.400Z,15.25
2023-05-09T01:54:18.628Z,12.23
2023-05-09T01:56:48.870Z,12.20
2023-05-09T01:59:19.459Z,13.10
2023-05-09T02:01:49.865Z,12.27
2023-05-09T02:04:20.808Z,16.67
2023-05-09T02:06:53.005Z,15.35
2023-05-09T02:09:23.187Z,15.30
2023-05-09T02:11:52.284Z,12.27
2023-05-09T02:14:21.669Z,13.13
2023-05-09T02:16:50.945Z,12.68
2023-05-09T02:19:20.313Z,10.95
2023-05-09T02:21:49.627Z,15.02
2023-05-09T02:24:18.966Z,16.13
2023-05-09T02:26:48.408Z,12.00
2023-05-09T02:29:21.685Z,13.52
2023-05-09T02:31:53.312Z,12.27
2023-05-09T02:34:23.637Z,14.43
2023-05-09T02:36:52.734Z,18.80
2023-05-09T02:39:31.326Z,14.15
2023-05-09T02:42:12.892Z,13.73
2023-05-09T02:44:42.285Z,16.13
2023-05-09T02:47:11.814Z,11.93
2023-05-09T02:49:41.089Z,15.82
2023-05-09T02:52:10.545Z,13.63
2023-05-09T02:54:40.145Z,20.55
2023-05-09T02:57:09.260Z,12.40
2023-05-09T02:59:38.252Z,13.23
2023-05-09T03:02:07.620Z,14.88
2023-05-09T03:04:37.151Z,14.05
2023-05-09T03:07:06.697Z,14.25
2023-05-09T03:09:35.914Z,17.13
2023-05-09T03:12:05.119Z,15.98
2023-05-09T03:14:34.192Z,14.13
2023-05-09T03:17:03.444Z,17.92
2023-05-09T03:19:32.584Z,15.55
2023-05-09T03:22:01.687Z,18.35
2023-05-09T03:24:31.262Z,14.40
2023-05-09T03:27:00.519Z,13.80
2023-05-09T03:29:29.741Z,15.68
2023-05-09T03:31:58.695Z,15.27
2023-05-09T03:34:27.840Z,14.80
2023-05-09T03:36:56.733Z,13.23
2023-05-09T03:39:25.760Z,14.90
2023-05-09T03:41:54.762Z,14.00
2023-05-09T03:44:23.804Z,14.70
2023-05-09T03:46:52.910Z,17.13
2023-05-09T03:49:21.945Z,13.10
2023-05-09T03:51:51.123Z,12.02
2023-05-09T03:54:20.128Z,13.65
2023-05-09T03:56:49.169Z,13.52
2023-05-09T03:59:18.505Z,14.55
2023-05-09T04:01:47.650Z,14.05
2023-05-09T04:04:17.330Z,12.88
2023-05-09T04:06:46.386Z,14.13
2023-05-09T04:09:16.076Z,11.60
2023-05-09T04:11:45.464Z,15.00
2023-05-09T04:14:14.453Z,14.07
2023-05-09T04:16:44.802Z,16.75
2023-05-09T04:19:13.924Z,13.57
2023-05-09T04:21:46.668Z,11.55
2023-05-09T04:24:15.833Z,14.70
2023-05-09T04:26:45.082Z,15.50
2023-05-09T04:29:14.039Z,15.45
2023-05-09T04:31:43.242Z,14.43
2023-05-09T04:34:13.032Z,13.77
2023-05-09T04:36:42.299Z,11.55
2023-05-09T04:39:12.030Z,13.35
2023-05-09T04:41:41.001Z,12.85
2023-05-09T04:44:10.216Z,12.18
2023-05-09T04:46:39.341Z,12.00
2023-05-09T04:49:08.539Z,13.13
2023-05-09T04:51:40.700Z,13.25
2023-05-09T04:54:15.640Z,13.73
2023-05-09T04:56:44.694Z,13.23
2023-05-09T04:59:13.733Z,16.45
2023-05-09T05:01:42.713Z,15.55
2023-05-09T05:04:11.946Z,14.60
2023-05-09T05:06:40.981Z,14.05
2023-05-09T05:09:11.269Z,15.90
2023-05-09T05:11:47.376Z,14.23
2023-05-09T05:14:22.374Z,14.82
2023-05-09T05:16:51.463Z,17.92
2023-05-09T05:19:20.540Z,17.05
2023-05-09T05:21:49.499Z,13.75
2023-05-09T05:24:18.468Z,15.25
2023-05-09T05:26:47.489Z,17.20
2023-05-09T05:29:16.582Z,18.80
2023-05-09T05:31:45.684Z,19.90
2023-05-09T05:34:14.818Z,12.80
2023-05-09T05:36:43.887Z,14.10
2023-05-09T05:39:12.868Z,14.90
2023-05-09T05:41:42.092Z,13.00
2023-05-09T05:44:11.152Z,15.57
2023-05-09T05:46:40.181Z,16.15
2023-05-09T05:49:09.202Z,14.48
2023-05-09T05:51:38.167Z,13.85
2023-05-09T05:54:07.245Z,14.48
2023-05-09T05:56:36.299Z,13.23
2023-05-09T05:59:05.267Z,15.20
2023-05-09T06:01:34.439Z,17.33
2023-05-09T06:04:03.438Z,15.95
2023-05-09T06:06:32.543Z,15.63
2023-05-09T06:09:01.439Z,15.40
2023-05-09T06:11:30.443Z,11.77
2023-05-09T06:13:59.406Z,14.20
2023-05-09T06:16:28.683Z,14.95
2023-05-09T06:18:57.798Z,17.60
2023-05-09T06:21:27.508Z,13.35
2023-05-09T06:26:28.292Z,15.48
2023-05-09T06:28:57.629Z,14.30
2023-05-09T06:31:26.756Z,18.98
2023-05-09T06:33:55.722Z,17.83
2023-05-09T06:36:24.730Z,15.10
2023-05-09T06:38:53.802Z,13.90
2023-05-09T06:41:23.050Z,13.80
2023-05-09T06:43:51.977Z,14.85
2023-05-09T06:46:21.215Z,16.23
2023-05-09T06:48:50.361Z,16.23
2023-05-09T06:51:19.462Z,16.58
2023-05-09T06:53:48.494Z,13.70
2023-05-09T06:56:19.976Z,14.25
2023-05-09T06:58:49.413Z,14.43
2023-05-09T07:01:18.940Z,13.05
2023-05-09T07:03:48.736Z,13.30
2023-05-09T07:06:17.803Z,17.02
2023-05-09T07:08:47.129Z,12.40
2023-05-09T07:11:16.148Z,13.95
2023-05-09T07:13:45.142Z,11.38
2023-05-09T07:16:14.185Z,18.08
2023-05-09T07:18:43.224Z,14.20
2023-05-09T07:21:12.635Z,13.30
2023-05-09T07:23:42.043Z,17.05
2023-05-09T07:26:11.101Z,13.45
2023-05-09T07:28:40.398Z,12.32
2023-05-09T07:31:10.549Z,12.05
2023-05-09T07:33:39.856Z,12.77
2023-05-09T07:36:09.050Z,12.52
2023-05-09T07:38:38.486Z,14.48
2023-05-09T07:41:07.982Z,12.05
2023-05-09T07:43:37.314Z,20.55
2023-05-09T07:46:06.430Z,13.05
2023-05-09T07:48:35.500Z,11.88
2023-05-09T07:51:04.481Z,13.38
2023-05-09T07:53:35.834Z,14.18
2023-05-09T07:56:04.831Z,12.15
2023-05-09T07:58:35.492Z,13.45
2023-05-09T08:01:04.451Z,13.15
2023-05-09T08:03:33.629Z,13.73
2023-05-09T08:06:02.705Z,13.27
2023-05-09T08:08:31.741Z,13.30
2023-05-09T08:11:00.864Z,13.77
2023-05-09T08:13:29.900Z,14.07
2023-05-09T08:15:59.462Z,13.30
2023-05-09T08:18:28.568Z,12.27
2023-05-09T08:20:57.516Z,14.60
2023-05-09T08:23:27.278Z,13.32
2023-05-09T08:25:56.656Z,14.00
2023-05-09T08:28:25.647Z,12.85
2023-05-09T08:30:54.798Z,13.60
2023-05-09T08:33:23.824Z,15.65
2023-05-09T08:35:54.409Z,14.30
2023-05-09T08:38:23.725Z,21.45
2023-05-09T08:40:52.790Z,24.92
2023-05-09T08:43:23.575Z,17.38
2023-05-09T08:46:00.319Z,19.27
2023-05-09T08:48:31.406Z,18.67
2023-05-09T08:51:01.154Z,19.58
2023-05-09T08:53:30.371Z,21.35
2023-05-09T08:56:02.841Z,17.15
2023-05-09T08:58:33.186Z,20.27
2023-05-09T09:01:05.824Z,20.75
2023-05-09T09:03:35.044Z,17.65
2023-05-09T09:06:04.334Z,17.25
2023-05-09T09:08:35.176Z,21.52
2023-05-09T09:11:04.412Z,15.40
2023-05-09T09:13:35.248Z,21.70
2023-05-09T09:16:04.462Z,15.52
2023-05-09T09:18:35.381Z,17.33
2023-05-09T09:21:11.116Z,21.08
2023-05-09T09:23:44.191Z,14.88
2023-05-09T09:26:13.250Z,14.52
2023-05-09T09:28:43.240Z,20.15
2023-05-09T09:31:48.100Z,16.70
2023-05-09T09:34:24.145Z,18.15
2023-05-09T09:36:53.396Z,14.73
2023-05-09T09:39:23.273Z,17.77
2023-05-09T09:41:52.438Z,16.27
2023-05-09T09:44:23.204Z,14.95
2023-05-09T09:46:57.083Z,16.73
2023-05-09T09:49:28.025Z,15.50
2023-05-09T09:51:59.511Z,20.08
2023-05-09T09:54:29.642Z,20.08
2023-05-09T09:56:58.752Z,14.18
2023-05-09T09:59:28.633Z,18.13
2023-05-09T10:02:04.923Z,16.75
2023-05-09T10:04:37.987Z,15.25
2023-05-09T10:07:15.161Z,18.42
2023-05-09T10:09:45.058Z,16.70
2023-05-09T10:12:16.609Z,19.10
2023-05-09T10:14:46.385Z,18.33
2023-05-09T10:17:19.587Z,16.45
2023-05-09T10:19:51.952Z,15.38
2023-05-09T10:22:24.323Z,21.10
2023-05-09T10:24:58.458Z,17.05
2023-05-09T10:27:30.746Z,15.55
2023-05-09T10:30:06.120Z,16.55
2023-05-09T10:32:56.198Z,17.63
2023-05-09T10:35:30.683Z,13.93
2023-05-09T10:38:00.024Z,18.52
2023-05-09T10:40:30.570Z,15.75
2023-05-09T10:42:59.530Z,15.52
2023-05-09T10:45:29.535Z,13.85
2023-05-09T10:47:59.375Z,14.13
2023-05-09T10:50:28.881Z,16.25
2023-05-09T10:53:20.100Z,16.70
2023-05-09T10:55:49.137Z,15.70
2023-05-09T10:58:38.682Z,17.35
2023-05-09T11:01:08.133Z,15.88
2023-05-09T11:03:56.765Z,16.73
2023-05-09T11:06:46.761Z,15.95
2023-05-09T11:09:42.506Z,14.95
2023-05-09T11:12:16.759Z,15.57
2023-05-09T11:14:47.049Z,19.52
2023-05-09T11:17:25.916Z,16.92
2023-05-09T11:19:55.115Z,15.55
2023-05-09T11:22:43.506Z,18.45
2023-05-09T11:25:18.117Z,16.65
2023-05-09T11:27:53.531Z,13.20
2023-05-09T11:30:22.887Z,17.38
2023-05-09T11:33:00.135Z,19.08
2023-05-09T11:35:29.201Z,38.88
2023-05-09T11:38:08.348Z,22.55
2023-05-09T11:40:38.526Z,13.25
2023-05-09T11:43:10.497Z,14.57
2023-05-09T11:45:41.862Z,16.65
2023-05-09T11:48:11.950Z,14.57
2023-05-09T11:50:42.380Z,17.52
2023-05-09T11:53:13.673Z,14.95
2023-05-09T11:55:43.352Z,14.27
2023-05-09T11:58:12.491Z,15.52
2023-05-09T12:00:47.147Z,17.42
2023-05-09T12:03:16.490Z,16.52
2023-05-09T12:05:45.808Z,16.35
2023-05-09T12:08:16.638Z,16.98
2023-05-09T12:10:45.825Z,14.57
2023-05-09T12:13:14.835Z,20.45
2023-05-09T12:15:46.819Z,21.20
2023-05-09T12:18:18.325Z,19.35
2023-05-09T12:20:52.258Z,21.00
2023-05-09T12:23:21.704Z,21.10
2023-05-09T12:26:00.054Z,18.80
2023-05-09T12:28:29.886Z,17.42
2023-05-09T12:30:59.586Z,18.08
2023-05-09T12:33:28.959Z,18.23
2023-05-09T12:36:15.407Z,20.77
2023-05-09T12:38:55.456Z,15.95
2023-05-09T12:43:57.276Z,16.40
2023-05-09T12:46:26.808Z,22.20
2023-05-09T12:48:56.322Z,15.43
2023-05-09T12:51:25.643Z,19.83
2023-05-09T12:53:55.292Z,18.67
2023-05-09T12:56:27.044Z,13.50
2023-05-09T12:58:57.262Z,12.25
2023-05-09T13:01:30.149Z,12.48
2023-05-09T13:04:07.716Z,20.33
2023-05-09T13:06:37.482Z,17.60
2023-05-09T13:09:07.419Z,12.90
2023-05-09T13:11:38.929Z,14.52
2023-05-09T13:14:08.037Z,13.50
2023-05-09T13:16:37.298Z,25.15
2023-05-09T13:19:06.632Z,16.25
2023-05-09T13:21:37.237Z,22.48
2023-05-09T13:24:07.249Z,15.55
2023-05-09T13:26:36.390Z,16.00
2023-05-09T13:29:05.444Z,16.38
2023-05-09T13:31:34.515Z,13.82
2023-05-09T13:34:03.493Z,12.93
2023-05-09T13:36:33.737Z,16.75
2023-05-09T13:39:02.755Z,17.35
2023-05-09T13:41:33.322Z,17.52
2023-05-09T13:44:02.456Z,22.92
2023-05-09T13:46:31.560Z,24.83
2023-05-09T13:49:00.640Z,25.75
2023-05-09T13:51:30.279Z,16.35
2023-05-09T13:53:59.237Z,18.08
2023-05-09T13:56:28.228Z,17.95
2023-05-09T13:58:57.179Z,17.17
2023-05-09T14:01:26.336Z,18.77
2023-05-09T14:03:55.577Z,16.90
2023-05-09T14:06:24.745Z,21.27
2023-05-09T14:08:54.249Z,15.63
2023-05-09T14:11:23.211Z,12.82
2023-05-09T14:13:53.745Z,15.02
2023-05-09T14:16:23.296Z,14.98
2023-05-09T14:18:52.285Z,12.50
2023-05-09T14:21:21.247Z,24.90
2023-05-09T14:23:50.870Z,20.05
2023-05-09T14:26:20.422Z,25.15
2023-05-09T14:28:49.665Z,19.27
2023-05-09T14:31:18.792Z,15.07
2023-05-09T14:33:48.102Z,12.95
2023-05-09T14:36:17.103Z,14.48
2023-05-09T14:38:48.015Z,18.35
2023-05-09T14:41:17.616Z,12.75
2023-05-09T14:43:47.809Z,11.02
2023-05-09T14:46:17.199Z,11.95
2023-05-09T14:48:46.192Z,11.30
2023-05-09T14:51:15.508Z,12.95
2023-05-09T14:53:44.739Z,12.05
2023-05-09T14:56:14.386Z,14.20
2023-05-09T14:58:43.487Z,14.05
2023-05-09T15:01:12.538Z,11.30
2023-05-09T15:03:42.024Z,12.40
2023-05-09T15:06:11.808Z,13.32
2023-05-09T15:08:42.472Z,10.52
2023-05-09T15:11:11.464Z,13.55
2023-05-09T15:13:40.426Z,11.05
2023-05-09T15:16:09.993Z,11.43
2023-05-09T15:18:43.850Z,13.10
2023-05-09T15:21:15.499Z,12.90
2023-05-09T15:23:44.706Z,11.82
2023-05-09T15:26:13.892Z,14.00
2023-05-09T15:28:42.939Z,10.77
2023-05-09T15:31:11.938Z,9.55
2023-05-09T15:33:40.873Z,11.38
2023-05-09T15:36:10.999Z,8.77
2023-05-09T15:38:40.054Z,9.85
2023-05-09T15:41:09.895Z,14.43
2023-05-09T15:43:38.972Z,13.80
2023-05-09T15:46:08.564Z,15.20
2023-05-09T15:48:37.698Z,14.68
2023-05-09T15:51:06.920Z,10.75
2023-05-09T15:53:35.894Z,11.30
2023-05-09T15:56:05.619Z,11.23
2023-05-09T15:58:35.390Z,12.60
2023-05-09T16:01:09.073Z,8.48
2023-05-09T16:03:38.753Z,11.70
2023-05-09T16:06:08.464Z,10.90
2023-05-09T16:08:37.450Z,11.88
2023-05-09T16:11:06.733Z,10.02
2023-05-09T16:13:36.299Z,11.63
2023-05-09T16:16:05.840Z,10.85
2023-05-09T16:18:35.023Z,13.93
2023-05-09T16:21:04.045Z,10.15
2023-05-09T16:23:33.026Z,10.82
2023-05-09T16:26:02.115Z,10.73
2023-05-09T16:28:31.388Z,11.13
2023-05-09T16:31:01.921Z,19.15
2023-05-09T16:33:31.053Z,11.93
2023-05-09T16:36:00.349Z,13.35
2023-05-09T16:38:29.636Z,11.43
2023-05-09T16:40:58.609Z,10.05
2023-05-09T16:43:27.606Z,10.75
2023-05-09T16:45:56.648Z,9.98
2023-05-09T16:48:25.676Z,9.45
2023-05-09T16:50:54.872Z,12.68
2023-05-09T16:53:25.418Z,11.63
2023-05-09T16:55:56.186Z,8.13
2023-05-09T16:58:26.404Z,8.38
2023-05-09T17:00:56.450Z,7.18
2023-05-09T17:03:25.542Z,9.35
2023-05-09T17:05:54.596Z,8.35
2023-05-09T17:08:24.769Z,8.35
2023-05-09T17:10:53.816Z,7.47
2023-05-09T17:13:22.971Z,10.25
2023-05-09T17:15:53.771Z,13.07
2023-05-09T17:18:36.006Z,6.22
2023-05-09T17:21:07.850Z,7.65
2023-05-09T17:23:36.934Z,9.98
2023-05-09T17:26:06.262Z,9.32
2023-05-09T17:28:35.346Z,9.27
2023-05-09T17:31:04.607Z,7.65
2023-05-09T17:33:33.722Z,7.57
2023-05-09T17:36:02.743Z,6.93
2023-05-09T17:38:31.923Z,7.35
2023-05-09T17:41:01.204Z,9.13
2023-05-09T17:43:30.270Z,6.40
2023-05-09T17:45:59.875Z,8.65
2023-05-09T17:48:29.019Z,7.50
2023-05-09T17:50:58.013Z,6.88
2023-05-09T17:53:27.700Z,7.63
2023-05-09T17:55:56.838Z,5.88
2023-05-09T17:58:25.923Z,6.93
2023-05-09T18:00:56.620Z,5.22
2023-05-09T18:03:26.215Z,5.22
2023-05-09T18:05:55.565Z,5.47
2023-05-09T18:08:24.906Z,7.13
2023-05-09T18:10:57.486Z,5.28
2023-05-09T18:13:26.979Z,4.80
2023-05-09T18:16:00.828Z,6.47
2023-05-09T18:18:30.288Z,9.40
2023-05-09T18:21:02.335Z,5.30
2023-05-09T18:23:31.645Z,3.67
2023-05-09T18:26:00.728Z,4.47
2023-05-09T18:28:29.980Z,4.57
2023-05-09T18:31:02.793Z,4.75
2023-05-09T18:33:32.414Z,5.22
2023-05-09T18:36:01.688Z,4.32
2023-05-09T18:38:31.881Z,3.65
2023-05-09T18:41:00.930Z,4.97
2023-05-09T18:43:31.016Z,2.92
2023-05-09T18:46:00.012Z,3.25
2023-05-09T18:48:29.029Z,3.22
2023-05-09T18:50:58.208Z,4.10
2023-05-09T18:53:28.124Z,3.47
2023-05-09T18:56:00.068Z,3.67
2023-05-09T18:58:29.116Z,4.50
2023-05-09T19:00:58.112Z,5.90
2023-05-09T19:03:28.365Z,4.00
2023-05-09T19:05:57.949Z,4.50
2023-05-09T19:08:27.465Z,4.00
2023-05-09T19:10:56.518Z,4.50
2023-05-09T19:13:25.606Z,4.13
2023-05-09T19:15:54.958Z,5.28
2023-05-09T19:18:24.242Z,3.22
2023-05-09T19:20:53.194Z,2.53
2023-05-09T19:23:22.388Z,3.30
2023-05-09T19:25:54.338Z,5.22
2023-05-09T19:28:24.238Z,4.40
2023-05-09T19:30:53.653Z,4.57
2023-05-09T19:33:22.841Z,4.05
2023-05-09T19:35:51.944Z,3.03
2023-05-09T19:38:20.980Z,4.40
2023-05-09T19:40:50.085Z,7.68
2023-05-09T19:43:19.160Z,4.03
2023-05-09T19:45:48.216Z,5.93
2023-05-09T19:48:17.228Z,7.38
2023-05-09T19:50:47.269Z,4.40
2023-05-09T19:53:16.466Z,4.30
2023-05-09T19:55:48.064Z,4.88
2023-05-09T19:58:18.098Z,3.55
2023-05-09T20:00:47.402Z,3.75
2023-05-09T20:03:16.708Z,3.30
2023-05-09T20:05:45.950Z,7.72
2023-05-09T20:08:15.132Z,5.00
2023-05-09T20:10:44.645Z,3.65
2023-05-09T20:13:15.152Z,8.32
2023-05-09T20:15:44.336Z,22.00
2023-05-09T20:18:13.932Z,5.72
2023-05-09T20:20:43.584Z,6.10
2023-05-09T20:23:12.824Z,7.03
2023-05-09T20:25:42.023Z,5.63
2023-05-09T20:28:13.455Z,5.07
2023-05-09T20:30:42.569Z,5.30
2023-05-09T20:33:11.736Z,6.00
2023-05-09T20:35:41.261Z,4.70
2023-05-09T20:38:10.618Z,5.63
2023-05-09T20:40:40.558Z,4.05
2023-05-09T20:43:09.891Z,4.68
2023-05-09T20:45:39.093Z,5.43
2023-05-09T20:48:09.243Z,6.32
2023-05-09T20:50:38.354Z,7.72
2023-05-09T20:53:07.434Z,5.55
2023-05-09T20:55:36.964Z,5.88
2023-05-09T20:58:06.050Z,11.23
2023-05-09T21:00:35.678Z,6.18
2023-05-09T21:03:05.161Z,7.50
2023-05-09T21:05:34.506Z,9.88
2023-05-09T21:08:03.570Z,6.07
2023-05-09T21:10:32.693Z,8.18
2023-05-09T21:13:01.966Z,5.88
2023-05-09T21:15:31.110Z,7.78
2023-05-09T21:18:00.586Z,6.40
2023-05-09T21:20:29.761Z,7.97
2023-05-09T21:22:58.997Z,8.40
2023-05-09T21:25:28.071Z,6.60
2023-05-09T21:27:57.580Z,6.43
2023-05-09T21:30:27.033Z,6.72
2023-05-09T21:32:56.186Z,3.53
2023-05-09T21:35:25.376Z,6.32
2023-05-09T21:37:54.446Z,10.75
2023-05-09T21:40:23.629Z,5.38
2023-05-09T21:42:52.782Z,16.55
2023-05-09T21:45:21.995Z,8.15
2023-05-09T21:47:51.215Z,12.75
2023-05-09T21:50:20.510Z,11.43
2023-05-09T21:52:49.636Z,8.88
2023-05-09T21:55:18.768Z,10.48
2023-05-09T21:57:47.794Z,13.63
2023-05-09T22:00:18.040Z,9.23
2023-05-09T22:02:48.198Z,7.38
2023-05-09T22:05:17.232Z,15.43
2023-05-09T22:07:46.369Z,7.78
2023-05-09T22:10:15.660Z,10.32
2023-05-09T22:12:45.442Z,7.85
2023-05-09T22:15:14.448Z,7.90
2023-05-09T22:17:43.501Z,6.35
2023-05-09T22:20:13.216Z,9.80
2023-05-09T22:22:43.414Z,22.05
2023-05-09T22:25:12.549Z,13.23
2023-05-09T22:27:41.867Z,11.23
2023-05-09T22:30:13.711Z,8.63
2023-05-09T22:32:43.001Z,8.15
2023-05-09T22:35:12.515Z,5.90
2023-05-09T22:37:41.596Z,8.23
2023-05-09T22:40:11.428Z,12.23
2023-05-09T22:42:40.412Z,10.13
2023-05-09T22:45:10.011Z,8.15
2023-05-09T22:47:39.416Z,8.90
2023-05-09T22:50:09.482Z,10.30
2023-05-09T22:52:38.488Z,10.05
2023-05-09T22:55:08.036Z,11.75
2023-05-09T22:57:37.183Z,7.68
2023-05-09T23:00:07.248Z,8.30
2023-05-09T23:02:36.438Z,9.80
2023-05-09T23:05:05.718Z,8.18
2023-05-09T23:07:34.941Z,8.77
2023-05-09T23:10:04.784Z,9.60
2023-05-09T23:12:33.802Z,9.63
2023-05-09T23:15:02.770Z,11.30
2023-05-09T23:17:31.920Z,8.10
2023-05-09T23:20:01.913Z,8.48
2023-05-09T23:22:31.296Z,6.75
2023-05-09T23:25:01.984Z,8.57
2023-05-09T23:27:32.410Z,7.18
2023-05-09T23:30:01.431Z,9.70
2023-05-09T23:32:30.639Z,10.95
2023-05-09T23:34:59.608Z,8.57
2023-05-09T23:37:28.583Z,8.57
2023-05-09T23:39:57.524Z,8.80
2023-05-09T23:42:26.511Z,11.75
2023-05-09T23:44:55.587Z,8.50
2023-05-09T23:47:24.581Z,10.10
2023-05-09T23:49:53.607Z,11.52
2023-05-09T23:52:22.620Z,12.43
2023-05-09T23:54:51.745Z,9.35
2023-05-09T23:57:21.251Z,11.70
2023-05-09T23:59:50.191Z,11.25
